Terminal Aerodrome Forecast
Issued by NWS

Home | Current Version | Previous Version | Text Only | Print | Product List | Glossary On
Versions: 1 2 3 4 5 6 7 8 9 10 11
000
FTAK31 PAJN 290500
TAFAWG
TAF
PAWG 290524Z 2906/3006 09015G21KT P6SM FEW200
     FM291200 09012KT P6SM FEW200
      AMD LTD TO CLD VIS AND WIND 2906/2915=

USA.gov is the U.S. government's official web portal to all federal, state and local government web resources and services.